createdAt,value
2023-05-22T00:01:58.122Z,97707.28
2023-05-22T00:05:01.484Z,97706.63
2023-05-22T00:08:06.573Z,97711.00
2023-05-22T00:11:09.906Z,97702.03
2023-05-22T00:14:32.777Z,97698.47
2023-05-22T00:17:36.597Z,97699.53
2023-05-22T00:20:40.989Z,97697.84
2023-05-22T00:23:46.104Z,97697.31
2023-05-22T00:26:49.401Z,97689.16
2023-05-22T00:29:52.550Z,97695.75
2023-05-22T00:32:56.712Z,97693.47
2023-05-22T00:35:59.865Z,97693.50
2023-05-22T00:39:04.728Z,97694.69
2023-05-22T00:42:08.044Z,97682.34
2023-05-22T00:45:12.528Z,97691.28
2023-05-22T00:48:16.546Z,97685.31
2023-05-22T00:51:21.290Z,97688.88
2023-05-22T00:54:25.881Z,97692.31
2023-05-22T00:57:29.184Z,97684.78
2023-05-22T01:00:34.093Z,97693.75
2023-05-22T01:03:42.395Z,97691.28
2023-05-22T01:06:47.718Z,97681.47
2023-05-22T01:09:53.295Z,97690.59
2023-05-22T01:13:05.462Z,97694.03
2023-05-22T01:16:19.198Z,97695.56
2023-05-22T01:19:47.379Z,97701.88
2023-05-22T01:23:17.807Z,97697.03
2023-05-22T01:26:41.884Z,97692.09
2023-05-22T01:29:49.298Z,97701.09
2023-05-22T01:32:57.912Z,97705.41
2023-05-22T01:36:03.381Z,97705.13
2023-05-22T01:39:07.699Z,97712.47
2023-05-22T01:42:11.356Z,97707.28
2023-05-22T01:45:15.608Z,97707.28
2023-05-22T01:48:20.570Z,97708.16
2023-05-22T01:51:34.503Z,97712.56
2023-05-22T01:54:43.472Z,97719.34
2023-05-22T01:57:52.445Z,97718.59
2023-05-22T02:00:57.454Z,97716.56
2023-05-22T02:04:03.019Z,97715.06
2023-05-22T02:07:08.293Z,97712.84
2023-05-22T02:10:13.541Z,97714.91
2023-05-22T02:13:16.888Z,97717.22
2023-05-22T02:16:22.163Z,97720.56
2023-05-22T02:19:26.954Z,97714.34
2023-05-22T02:22:30.097Z,97716.31
2023-05-22T02:25:33.752Z,97712.69
2023-05-22T02:28:36.996Z,97713.63
2023-05-22T02:31:40.577Z,97707.09
2023-05-22T02:34:45.262Z,97711.00
2023-05-22T02:37:50.946Z,97714.16
2023-05-22T02:40:55.023Z,97703.84
2023-05-22T02:43:58.541Z,97703.00
2023-05-22T02:47:01.896Z,97711.00
2023-05-22T02:50:08.448Z,97698.50
2023-05-22T02:53:13.049Z,97700.41
2023-05-22T02:56:16.819Z,97703.06
2023-05-22T02:59:36.768Z,97706.94
2023-05-22T03:02:40.099Z,97695.91
2023-05-22T03:05:46.944Z,97711.47
2023-05-22T03:08:50.818Z,97707.94
2023-05-22T03:11:54.056Z,97710.53
2023-05-22T03:14:57.537Z,97710.44
2023-05-22T03:18:00.922Z,97707.75
2023-05-22T03:21:06.598Z,97715.00
2023-05-22T03:24:10.027Z,97710.97
2023-05-22T03:27:16.321Z,97720.72
2023-05-22T03:30:19.932Z,97711.53
2023-05-22T03:34:34.492Z,97717.81
2023-05-22T03:37:38.631Z,97720.19
2023-05-22T03:40:42.042Z,97711.81
2023-05-22T03:43:46.975Z,97709.19
2023-05-22T03:46:50.451Z,97715.81
2023-05-22T03:49:55.023Z,97712.53
2023-05-22T03:52:58.940Z,97717.56
2023-05-22T03:56:02.210Z,97707.34
2023-05-22T03:59:25.149Z,97702.88
2023-05-22T04:02:30.206Z,97712.19
2023-05-22T04:05:35.241Z,97704.19
2023-05-22T04:08:38.730Z,97720.50
2023-05-22T04:11:42.679Z,97715.81
2023-05-22T04:14:46.290Z,97731.63
2023-05-22T04:17:50.849Z,97723.19
2023-05-22T04:20:55.679Z,97729.75
2023-05-22T04:23:58.848Z,97733.91
2023-05-22T04:27:02.367Z,97735.06
2023-05-22T04:30:07.305Z,97729.31
2023-05-22T04:33:10.563Z,97736.81
2023-05-22T04:36:15.114Z,97732.94
2023-05-22T04:39:18.321Z,97729.50
2023-05-22T04:42:22.546Z,97734.69
2023-05-22T04:45:25.836Z,97725.75
2023-05-22T04:48:29.250Z,97735.16
2023-05-22T04:51:34.908Z,97733.25
2023-05-22T04:54:38.509Z,97731.94
2023-05-22T04:57:44.555Z,97730.00
2023-05-22T05:00:47.838Z,97728.84
2023-05-22T05:03:51.199Z,97724.19
2023-05-22T05:06:57.517Z,97717.84
2023-05-22T05:10:00.974Z,97726.88
2023-05-22T05:13:04.347Z,97724.13
2023-05-22T05:16:12.190Z,97718.53
2023-05-22T05:19:16.645Z,97725.84
2023-05-22T05:22:21.202Z,97724.16
2023-05-22T05:25:24.458Z,97715.72
2023-05-22T05:28:27.832Z,97717.78
2023-05-22T05:31:32.895Z,97713.59
2023-05-22T05:34:46.975Z,97719.94
2023-05-22T05:38:01.705Z,97710.63
2023-05-22T05:41:06.089Z,97707.56
2023-05-22T05:44:30.436Z,97701.56
2023-05-22T05:47:34.769Z,97711.13
2023-05-22T05:50:39.158Z,97713.09
2023-05-22T05:53:44.021Z,97704.16
2023-05-22T05:56:47.745Z,97719.19
2023-05-22T05:59:51.176Z,97718.00
2023-05-22T06:03:29.782Z,97717.53
2023-05-22T06:06:44.274Z,97705.53
2023-05-22T06:09:49.366Z,97710.84
2023-05-22T06:12:57.956Z,97711.16
2023-05-22T06:16:04.823Z,97712.41
2023-05-22T06:19:10.851Z,97713.50
2023-05-22T06:22:14.498Z,97720.91
2023-05-22T06:25:21.400Z,97723.53
2023-05-22T06:28:26.292Z,97701.78
2023-05-22T06:31:29.653Z,97716.53
2023-05-22T06:34:34.666Z,97713.16
2023-05-22T06:37:38.972Z,97715.75
2023-05-22T06:40:44.344Z,97691.41
2023-05-22T06:43:59.840Z,97707.25
2023-05-22T06:47:06.238Z,97713.59
2023-05-22T06:50:11.249Z,97699.78
2023-05-22T06:53:14.763Z,97703.53
2023-05-22T06:56:19.574Z,97710.13
2023-05-22T06:59:39.490Z,97710.69
2023-05-22T07:02:42.761Z,97707.16
2023-05-22T07:05:59.463Z,97713.06
2023-05-22T07:09:03.422Z,97716.22
2023-05-22T07:12:09.604Z,97706.13
2023-05-22T07:15:14.468Z,97713.38
2023-05-22T07:18:23.668Z,97705.22
2023-05-22T07:21:30.192Z,97702.91
2023-05-22T07:24:33.921Z,97700.00
2023-05-22T07:27:38.938Z,97692.22
2023-05-22T07:30:43.011Z,97707.84
2023-05-22T07:33:46.352Z,97706.75
2023-05-22T07:36:50.857Z,97707.84
2023-05-22T07:39:54.192Z,97703.16
2023-05-22T07:43:01.146Z,97705.56
2023-05-22T07:46:06.106Z,97702.03
2023-05-22T07:49:19.503Z,97698.38
2023-05-22T07:52:23.866Z,97701.56
2023-05-22T07:55:28.584Z,97699.06
2023-05-22T07:58:34.604Z,97693.81
2023-05-22T08:01:38.635Z,97698.66
2023-05-22T08:04:42.155Z,97704.59
2023-05-22T08:07:46.356Z,97697.63
2023-05-22T08:11:03.058Z,97697.28
2023-05-22T08:14:28.237Z,97700.47
2023-05-22T08:17:31.632Z,97689.34
2023-05-22T08:20:35.036Z,97691.28
2023-05-22T08:23:38.585Z,97691.91
2023-05-22T08:26:43.670Z,97693.28
2023-05-22T08:29:48.174Z,97687.66
2023-05-22T08:32:51.440Z,97690.00
2023-05-22T08:35:54.901Z,97692.16
2023-05-22T08:38:58.393Z,97694.28
2023-05-22T08:42:03.288Z,97678.56
2023-05-22T08:45:09.851Z,97680.38
2023-05-22T08:48:14.669Z,97680.69
2023-05-22T08:51:20.545Z,97673.38
2023-05-22T08:54:27.516Z,97679.47
2023-05-22T08:57:31.240Z,97676.63
2023-05-22T09:00:35.983Z,97678.34
2023-05-22T09:03:39.859Z,97673.44
2023-05-22T09:06:43.394Z,97672.09
2023-05-22T09:09:46.545Z,97664.25
2023-05-22T09:13:01.525Z,97663.75
2023-05-22T09:16:10.802Z,97663.53
2023-05-22T09:19:14.736Z,97593.38
2023-05-22T09:22:18.132Z,97651.84
2023-05-22T09:25:22.501Z,97660.59
2023-05-22T09:28:26.541Z,97666.41
2023-05-22T09:34:35.545Z,97658.47
2023-05-22T09:37:39.003Z,97656.66
2023-05-22T09:40:43.055Z,97650.81
2023-05-22T09:43:51.277Z,97647.00
2023-05-22T09:46:55.805Z,97651.84
2023-05-22T09:50:04.004Z,97617.22
2023-05-22T09:53:07.706Z,97651.19
2023-05-22T09:56:15.940Z,97641.28
2023-05-22T09:59:23.495Z,97643.94
2023-05-22T10:02:28.759Z,97637.84
2023-05-22T10:05:33.984Z,97641.03
2023-05-22T10:08:43.352Z,97627.47
2023-05-22T10:11:47.405Z,97636.19
2023-05-22T10:14:50.958Z,97627.75
2023-05-22T10:17:54.240Z,97619.22
2023-05-22T10:21:02.478Z,97617.50
2023-05-22T10:24:07.031Z,97615.28
2023-05-22T10:27:10.030Z,97615.91
2023-05-22T10:30:24.697Z,97620.84
2023-05-22T10:33:51.909Z,97597.03
2023-05-22T10:37:18.588Z,97617.75
2023-05-22T10:40:30.445Z,97605.97
2023-05-22T10:43:34.003Z,97614.81
2023-05-22T10:46:37.473Z,97606.56
2023-05-22T10:49:45.118Z,97612.88
2023-05-22T10:52:49.677Z,97611.97
2023-05-22T10:55:54.318Z,97613.53
2023-05-22T10:58:59.378Z,97593.63
2023-05-22T11:02:02.644Z,97611.22
2023-05-22T11:05:35.173Z,97601.13
2023-05-22T11:08:41.960Z,97599.97
2023-05-22T11:11:45.371Z,97602.97
2023-05-22T11:14:50.922Z,97606.00
2023-05-22T11:17:56.607Z,97604.25
2023-05-22T11:21:00.708Z,97587.81
2023-05-22T11:24:08.919Z,97600.44
2023-05-22T11:27:12.294Z,97589.31
2023-05-22T11:30:16.562Z,97589.88
2023-05-22T11:33:20.262Z,97589.59
2023-05-22T11:36:24.701Z,97586.38
2023-05-22T11:39:30.048Z,97573.81
2023-05-22T11:42:33.633Z,97575.09
2023-05-22T11:45:38.172Z,97576.69
2023-05-22T11:48:42.386Z,97566.66
2023-05-22T11:51:45.888Z,97568.09
2023-05-22T11:54:52.744Z,97572.19
2023-05-22T11:57:56.521Z,97566.13
2023-05-22T12:01:04.172Z,97567.44
2023-05-22T12:04:07.427Z,97558.19
2023-05-22T12:07:13.229Z,97559.28
2023-05-22T12:10:17.807Z,97553.25
2023-05-22T12:13:26.412Z,97557.22
2023-05-22T12:16:34.711Z,97557.94
2023-05-22T12:19:41.105Z,97551.03
2023-05-22T12:22:44.854Z,97548.19
2023-05-22T12:25:57.570Z,97553.66
2023-05-22T12:29:01.129Z,97548.69
2023-05-22T12:32:08.546Z,97547.66
2023-05-22T12:35:16.432Z,97551.84
2023-05-22T12:38:21.994Z,97543.84
2023-05-22T12:41:26.521Z,97540.78
2023-05-22T12:44:29.916Z,97541.16
2023-05-22T12:47:35.123Z,97545.28
2023-05-22T12:50:41.564Z,97539.25
2023-05-22T12:53:45.085Z,97542.09
2023-05-22T12:56:49.601Z,97537.78
2023-05-22T12:59:52.865Z,97535.09
2023-05-22T13:02:56.267Z,97530.69
2023-05-22T13:06:00.229Z,97524.50
2023-05-22T13:09:03.536Z,97528.38
2023-05-22T13:12:10.427Z,97529.19
2023-05-22T13:15:15.305Z,97518.75
2023-05-22T13:18:18.624Z,97519.97
2023-05-22T13:21:22.857Z,97520.91
2023-05-22T13:24:26.901Z,97515.56
2023-05-22T13:27:33.534Z,97514.13
2023-05-22T13:30:37.074Z,97514.38
2023-05-22T13:33:40.207Z,97509.56
2023-05-22T13:36:43.505Z,97507.34
2023-05-22T13:39:46.791Z,97517.59
2023-05-22T13:42:52.596Z,97505.47
2023-05-22T13:45:55.919Z,97510.97
2023-05-22T13:49:00.157Z,97506.34
2023-05-22T13:52:03.461Z,97503.47
2023-05-22T13:55:07.402Z,97504.38
2023-05-22T13:58:12.065Z,97501.03
2023-05-22T14:01:15.276Z,97493.84
2023-05-22T14:04:18.601Z,97492.16
2023-05-22T14:07:21.790Z,97494.59
2023-05-22T14:10:24.993Z,97488.72
2023-05-22T14:13:30.656Z,97487.56
2023-05-22T14:16:33.976Z,97495.19
2023-05-22T14:19:40.032Z,97477.66
2023-05-22T14:22:56.509Z,97470.56
2023-05-22T14:26:01.506Z,97474.38
2023-05-22T14:29:14.897Z,97465.53
2023-05-22T14:32:18.171Z,97472.22
2023-05-22T14:35:21.352Z,97472.78
2023-05-22T14:38:24.710Z,97465.78
2023-05-22T14:41:28.284Z,97459.22
2023-05-22T14:44:32.791Z,97466.81
2023-05-22T14:47:35.954Z,97478.00
2023-05-22T14:50:39.108Z,97473.78
2023-05-22T14:53:42.303Z,97473.19
2023-05-22T14:56:46.225Z,97462.31
2023-05-22T14:59:50.785Z,97463.59
2023-05-22T15:02:54.079Z,97469.97
2023-05-22T15:05:57.851Z,97468.78
2023-05-22T15:09:01.064Z,97473.38
2023-05-22T15:12:04.359Z,97457.63
2023-05-22T15:15:10.082Z,97458.03
2023-05-22T15:18:14.113Z,97443.00
2023-05-22T15:21:17.587Z,97449.84
2023-05-22T15:24:20.893Z,97441.50
2023-05-22T15:27:24.107Z,97441.13
2023-05-22T15:34:34.187Z,97425.72
2023-05-22T15:37:37.576Z,97429.94
2023-05-22T15:40:41.759Z,97434.41
2023-05-22T15:43:45.157Z,97426.44
2023-05-22T15:46:48.356Z,97438.31
2023-05-22T15:49:53.070Z,97435.53
2023-05-22T15:52:57.004Z,97430.66
2023-05-22T15:56:00.366Z,97437.94
2023-05-22T15:59:10.447Z,97436.72
2023-05-22T16:02:13.914Z,97433.50
2023-05-22T16:05:21.013Z,97419.78
2023-05-22T16:08:24.213Z,97434.81
2023-05-22T16:11:27.421Z,97432.91
2023-05-22T16:14:30.814Z,97432.56
2023-05-22T16:17:34.167Z,97439.88
2023-05-22T16:20:38.838Z,97439.25
2023-05-22T16:23:42.014Z,97437.47
2023-05-22T16:26:45.220Z,97433.88
2023-05-22T16:29:48.972Z,97441.28
2023-05-22T16:32:52.392Z,97436.28
2023-05-22T16:35:56.966Z,97433.06
2023-05-22T16:39:00.166Z,97434.44
2023-05-22T16:42:03.404Z,97430.91
2023-05-22T16:45:07.719Z,97432.19
2023-05-22T16:48:11.598Z,97436.75
2023-05-22T16:51:16.191Z,97436.53
2023-05-22T16:54:19.379Z,97443.66
2023-05-22T16:57:23.201Z,97438.66
2023-05-22T17:00:26.422Z,97435.94
2023-05-22T17:03:29.781Z,97431.28
2023-05-22T17:06:35.425Z,97448.66
2023-05-22T17:09:38.648Z,97434.09
2023-05-22T17:12:41.886Z,97431.28
2023-05-22T17:15:45.195Z,97429.81
2023-05-22T17:18:48.398Z,97433.84
2023-05-22T17:21:53.188Z,97428.63
2023-05-22T17:24:56.582Z,97434.38
2023-05-22T17:27:59.820Z,97438.91
2023-05-22T17:31:03.161Z,97434.19
2023-05-22T17:34:06.320Z,97450.97
2023-05-22T17:37:11.338Z,97434.88
2023-05-22T17:40:14.666Z,97442.75
2023-05-22T17:43:19.075Z,97439.88
2023-05-22T17:46:22.494Z,97447.13
2023-05-22T17:49:25.670Z,97442.88
2023-05-22T17:52:30.591Z,97444.53
2023-05-22T17:55:36.154Z,97436.00
2023-05-22T17:58:39.722Z,97436.75
2023-05-22T18:01:43.059Z,97438.25
2023-05-22T18:04:46.406Z,97437.31
2023-05-22T18:07:51.074Z,97439.91
2023-05-22T18:10:55.753Z,97430.13
2023-05-22T18:13:59.582Z,97429.38
2023-05-22T18:17:03.890Z,97436.06
2023-05-22T18:20:08.326Z,97440.25
2023-05-22T18:23:13.133Z,97438.31
2023-05-22T18:26:16.487Z,97440.03
2023-05-22T18:29:19.847Z,97443.50
2023-05-22T18:32:23.162Z,97448.97
2023-05-22T18:35:26.693Z,97449.63
2023-05-22T18:38:31.425Z,97456.88
2023-05-22T18:41:34.687Z,97468.25
2023-05-22T18:44:37.953Z,97466.97
2023-05-22T18:47:41.568Z,97469.09
2023-05-22T18:50:44.839Z,97465.88
2023-05-22T18:53:51.609Z,97466.66
2023-05-22T18:56:54.845Z,97474.34
2023-05-22T18:59:58.753Z,97477.56
2023-05-22T19:03:02.070Z,97479.66
2023-05-22T19:06:05.852Z,97477.03
2023-05-22T19:09:10.870Z,97464.53
2023-05-22T19:12:14.066Z,97486.38
2023-05-22T19:15:17.408Z,97494.88
2023-05-22T19:18:20.756Z,97494.22
2023-05-22T19:21:24.465Z,97511.03
2023-05-22T19:24:29.086Z,97517.03
2023-05-22T19:27:32.330Z,97518.09
2023-05-22T19:30:35.584Z,97527.56
2023-05-22T19:33:38.827Z,97523.47
2023-05-22T19:36:42.610Z,97512.22
2023-05-22T19:39:47.394Z,97529.63
2023-05-22T19:42:50.599Z,97530.06
2023-05-22T19:45:54.277Z,97535.78
2023-05-22T19:48:57.833Z,97537.47
2023-05-22T19:52:01.323Z,97537.97
2023-05-22T19:55:06.599Z,97544.97
2023-05-22T19:58:09.743Z,97546.78
2023-05-22T20:01:12.946Z,97541.72
2023-05-22T20:04:16.772Z,97541.72
2023-05-22T20:07:20.229Z,97543.47
2023-05-22T20:10:25.757Z,97543.41
2023-05-22T20:13:29.552Z,97551.78
2023-05-22T20:16:32.965Z,97546.94
2023-05-22T20:19:36.307Z,97547.09
2023-05-22T20:22:39.676Z,97545.75
2023-05-22T20:25:44.244Z,97547.09
2023-05-22T20:28:47.459Z,97545.00
2023-05-22T20:31:54.431Z,97553.97
2023-05-22T20:34:57.679Z,97561.91
2023-05-22T20:38:03.724Z,97560.97
2023-05-22T20:41:09.820Z,97569.72
2023-05-22T20:44:13.258Z,97567.00
2023-05-22T20:47:16.844Z,97572.38
2023-05-22T20:50:20.167Z,97570.75
2023-05-22T20:53:24.453Z,97574.75
2023-05-22T20:56:32.114Z,97572.63
2023-05-22T20:59:38.530Z,97577.59
2023-05-22T21:02:41.823Z,97580.34
2023-05-22T21:05:45.134Z,97579.72
2023-05-22T21:08:48.695Z,97585.50
2023-05-22T21:11:53.374Z,97579.28
2023-05-22T21:14:56.491Z,97588.97
2023-05-22T21:18:00.077Z,97589.94
2023-05-22T21:21:03.428Z,97577.06
2023-05-22T21:24:07.648Z,97582.31
2023-05-22T21:27:12.194Z,97583.44
2023-05-22T21:30:16.172Z,97579.16
2023-05-22T21:34:33.974Z,97577.88
2023-05-22T21:37:37.299Z,97586.88
2023-05-22T21:40:42.552Z,97575.38
2023-05-22T21:43:47.349Z,97578.47
2023-05-22T21:46:50.756Z,97579.88
2023-05-22T21:49:55.413Z,97571.84
2023-05-22T21:52:58.547Z,97571.50
2023-05-22T21:56:02.205Z,97572.91
2023-05-22T21:59:10.284Z,97516.06
2023-05-22T22:02:13.576Z,97569.56
2023-05-22T22:05:18.793Z,97556.53
2023-05-22T22:08:22.038Z,97561.78
2023-05-22T22:11:26.429Z,97562.59
2023-05-22T22:14:30.300Z,97568.19
2023-05-22T22:17:34.761Z,97565.13
2023-05-22T22:20:44.756Z,97573.81
2023-05-22T22:23:48.597Z,97569.16
2023-05-22T22:26:52.815Z,97577.41
2023-05-22T22:29:56.084Z,97562.88
2023-05-22T22:32:59.581Z,97571.03
2023-05-22T22:36:04.387Z,97567.03
2023-05-22T22:39:07.947Z,97562.56
2023-05-22T22:42:11.113Z,97566.75
2023-05-22T22:45:14.629Z,97561.78
2023-05-22T22:48:22.202Z,97570.47
2023-05-22T22:51:26.765Z,97577.09
2023-05-22T22:54:30.392Z,97575.25
2023-05-22T22:57:33.666Z,97585.72
2023-05-22T23:00:37.416Z,97580.84
2023-05-22T23:03:40.993Z,97589.28
2023-05-22T23:06:46.097Z,97590.25
2023-05-22T23:09:49.224Z,97583.13
2023-05-22T23:12:52.343Z,97594.94
2023-05-22T23:15:55.730Z,97594.03
2023-05-22T23:18:59.002Z,97589.00
2023-05-22T23:22:03.630Z,97606.38
2023-05-22T23:25:07.684Z,97614.38
2023-05-22T23:28:10.828Z,97616.28
2023-05-22T23:31:14.635Z,97618.91
2023-05-22T23:34:18.170Z,97590.91
2023-05-22T23:37:22.914Z,97620.25
2023-05-22T23:40:26.067Z,97620.66
2023-05-22T23:43:29.228Z,97615.41
2023-05-22T23:46:32.674Z,97631.38
2023-05-22T23:49:36.024Z,97624.22
2023-05-22T23:52:40.776Z,97620.88
2023-05-22T23:55:43.881Z,97626.72
2023-05-22T23:58:47.042Z,97624.72
